createdAt,value
2018-09-11T00:02:10.751Z,3.50
2018-09-11T00:04:38.587Z,4.53
2018-09-11T00:07:06.436Z,5.37
2018-09-11T00:09:34.262Z,3.50
2018-09-11T00:12:02.102Z,4.30
2018-09-11T00:14:29.933Z,5.67
2018-09-11T00:16:57.766Z,3.33
2018-09-11T00:19:26.011Z,3.43
2018-09-11T00:21:54.014Z,6.03
2018-09-11T00:24:21.859Z,5.27
2018-09-11T00:26:49.688Z,6.20
2018-09-11T00:29:17.524Z,5.03
2018-09-11T00:31:45.436Z,5.90
2018-09-11T00:34:13.257Z,5.70
2018-09-11T00:36:41.163Z,3.47
2018-09-11T00:39:09.372Z,4.43
2018-09-11T00:41:37.199Z,6.60
2018-09-11T00:44:05.346Z,3.40
2018-09-11T00:46:33.315Z,4.77
2018-09-11T00:49:01.141Z,4.07
2018-09-11T00:51:29.019Z,3.80
2018-09-11T00:53:56.891Z,4.37
2018-09-11T00:56:24.737Z,3.87
2018-09-11T00:58:52.952Z,5.83
2018-09-11T01:01:20.791Z,3.73
2018-09-11T01:03:48.638Z,5.67
2018-09-11T01:06:16.488Z,5.23
2018-09-11T01:08:44.315Z,4.33
2018-09-11T01:11:12.135Z,4.23
2018-09-11T01:13:40.008Z,9.47
2018-09-11T01:16:09.071Z,6.30
2018-09-11T01:18:36.902Z,8.13
2018-09-11T01:21:05.064Z,8.77
2018-09-11T01:23:33.630Z,8.93
2018-09-11T01:26:01.473Z,9.27
2018-09-11T01:28:29.303Z,12.03
2018-09-11T01:30:57.150Z,9.53
2018-09-11T01:33:24.963Z,7.00
2018-09-11T01:35:52.851Z,7.07
2018-09-11T01:38:20.852Z,8.80
2018-09-11T01:40:48.675Z,10.63
2018-09-11T01:43:16.506Z,7.20
2018-09-11T01:45:44.336Z,8.00
2018-09-11T01:48:12.182Z,7.83
2018-09-11T01:50:40.017Z,7.37
2018-09-11T01:53:07.836Z,8.97
2018-09-11T01:55:35.822Z,10.60
2018-09-11T01:58:03.655Z,6.73
2018-09-11T02:00:31.492Z,9.10
2018-09-11T02:02:59.307Z,8.37
2018-09-11T02:05:27.125Z,8.83
2018-09-11T02:07:54.950Z,5.17
2018-09-11T02:10:22.801Z,8.30
2018-09-11T02:12:50.640Z,7.07
2018-09-11T02:15:18.560Z,8.87
2018-09-11T02:17:46.482Z,11.47
2018-09-11T02:20:14.435Z,9.77
2018-09-11T02:22:42.265Z,9.47
2018-09-11T02:25:10.118Z,6.43
2018-09-11T02:27:37.995Z,8.47
2018-09-11T02:30:05.852Z,9.33
2018-09-11T02:32:33.691Z,7.30
2018-09-11T02:35:01.518Z,9.77
2018-09-11T02:37:29.559Z,9.93
2018-09-11T02:39:57.398Z,9.33
2018-09-11T02:42:25.216Z,9.37
2018-09-11T02:44:53.072Z,9.33
2018-09-11T02:47:20.883Z,9.40
2018-09-11T02:49:48.718Z,6.97
2018-09-11T02:52:16.580Z,7.57
2018-09-11T02:54:44.526Z,7.87
2018-09-11T02:57:12.352Z,7.53
2018-09-11T02:59:40.216Z,7.00
2018-09-11T03:02:08.048Z,9.80
2018-09-11T03:04:35.877Z,8.60
2018-09-11T03:07:03.742Z,6.50
2018-09-11T03:09:31.592Z,10.03
2018-09-11T03:11:59.451Z,16.63
2018-09-11T03:14:27.279Z,10.50
2018-09-11T03:16:55.136Z,8.83
2018-09-11T03:19:22.971Z,8.90
2018-09-11T03:21:50.807Z,5.33
2018-09-11T03:24:18.702Z,11.80
2018-09-11T03:26:46.551Z,11.17
2018-09-11T03:29:14.373Z,8.40
2018-09-11T03:31:42.520Z,7.63
2018-09-11T03:34:10.356Z,8.47
2018-09-11T03:36:38.194Z,8.43
2018-09-11T03:39:07.293Z,8.50
2018-09-11T03:41:35.130Z,7.33
2018-09-11T03:44:02.994Z,10.37
2018-09-11T03:46:30.825Z,9.07
2018-09-11T03:48:58.747Z,8.33
2018-09-11T03:51:26.582Z,8.23
2018-09-11T03:53:54.391Z,7.93
2018-09-11T03:56:22.207Z,9.23
2018-09-11T03:58:50.042Z,11.97
2018-09-11T04:01:17.868Z,14.33
2018-09-11T04:03:45.889Z,6.83
2018-09-11T04:06:13.733Z,11.27
2018-09-11T04:08:41.595Z,12.60
2018-09-11T04:11:09.417Z,11.70
2018-09-11T04:13:37.239Z,9.87
2018-09-11T04:16:05.091Z,15.30
2018-09-11T04:18:32.928Z,10.23
2018-09-11T04:21:00.764Z,11.77
2018-09-11T04:23:28.596Z,12.43
2018-09-11T04:25:56.451Z,13.57
2018-09-11T04:28:24.339Z,8.40
2018-09-11T04:30:52.190Z,16.13
2018-09-11T04:33:20.135Z,8.90
2018-09-11T04:35:48.016Z,11.60
2018-09-11T04:38:15.845Z,9.00
2018-09-11T04:40:43.696Z,11.93
2018-09-11T04:43:11.633Z,13.77
2018-09-11T04:45:39.458Z,8.50
2018-09-11T04:48:07.316Z,13.77
2018-09-11T04:50:35.216Z,13.23
2018-09-11T04:53:03.070Z,12.60
2018-09-11T04:55:30.900Z,11.30
2018-09-11T04:57:58.734Z,8.77
2018-09-11T05:00:26.574Z,8.73
2018-09-11T05:02:54.450Z,10.47
2018-09-11T05:05:22.284Z,11.03
2018-09-11T05:07:50.737Z,13.00
2018-09-11T05:10:18.644Z,14.60
2018-09-11T05:12:46.568Z,14.87
2018-09-11T05:15:14.615Z,15.30
2018-09-11T05:17:42.516Z,16.90
2018-09-11T05:20:10.328Z,13.00
2018-09-11T05:22:38.175Z,16.27
2018-09-11T05:25:06.243Z,17.33
2018-09-11T05:27:34.186Z,12.80
2018-09-11T05:30:01.975Z,18.77
2018-09-11T05:32:29.817Z,11.37
2018-09-11T05:34:57.662Z,12.33
2018-09-11T05:37:26.365Z,13.40
2018-09-11T05:39:54.529Z,14.50
2018-09-11T05:42:22.345Z,20.53
2018-09-11T05:44:50.185Z,13.27
2018-09-11T05:47:18.040Z,14.87
2018-09-11T05:49:45.908Z,15.93
2018-09-11T05:52:13.747Z,18.67
2018-09-11T05:54:41.727Z,20.00
2018-09-11T05:57:09.712Z,13.97
2018-09-11T05:59:37.549Z,10.23
2018-09-11T06:02:05.624Z,15.63
2018-09-11T06:04:33.460Z,13.53
2018-09-11T06:07:01.276Z,12.47
2018-09-11T06:09:29.107Z,12.87
2018-09-11T06:11:57.302Z,16.37
2018-09-11T06:14:25.138Z,10.13
2018-09-11T06:16:52.974Z,9.67
2018-09-11T06:19:20.811Z,12.03
2018-09-11T06:21:48.647Z,16.13
2018-09-11T06:24:16.507Z,13.00
2018-09-11T06:26:44.331Z,9.70
2018-09-11T06:29:12.207Z,11.43
2018-09-11T06:31:40.036Z,10.80
2018-09-11T06:34:07.892Z,12.67
2018-09-11T06:36:35.705Z,5.77
2018-09-11T06:39:05.846Z,7.67
2018-09-11T06:41:33.859Z,10.10
2018-09-11T06:44:01.748Z,10.57
2018-09-11T06:46:29.578Z,10.63
2018-09-11T06:48:57.395Z,9.93
2018-09-11T06:51:25.221Z,9.80
2018-09-11T06:53:53.046Z,11.37
2018-09-11T06:56:20.859Z,10.20
2018-09-11T06:58:48.769Z,8.70
2018-09-11T07:01:16.593Z,7.60
2018-09-11T07:03:44.419Z,6.33
2018-09-11T07:06:12.245Z,7.37
2018-09-11T07:08:40.170Z,5.57
2018-09-11T07:11:07.966Z,8.80
2018-09-11T07:13:35.779Z,5.70
2018-09-11T07:16:03.663Z,19.87
2018-09-11T07:18:31.497Z,9.80
2018-09-11T07:20:59.335Z,5.93
2018-09-11T07:23:27.190Z,12.47
2018-09-11T07:25:55.061Z,8.00
2018-09-11T07:28:22.917Z,5.63
2018-09-11T07:30:50.771Z,5.17
2018-09-11T07:33:18.677Z,10.40
2018-09-11T07:35:46.567Z,5.33
2018-09-11T07:38:15.158Z,11.23
2018-09-11T07:40:43.224Z,10.13
2018-09-11T07:43:11.047Z,5.23
2018-09-11T07:45:38.878Z,9.17
2018-09-11T07:48:06.780Z,17.40
2018-09-11T07:50:34.600Z,9.73
2018-09-11T07:53:02.483Z,6.63
2018-09-11T07:55:30.315Z,8.33
2018-09-11T07:57:58.223Z,5.13
2018-09-11T08:00:26.040Z,7.03
2018-09-11T08:02:53.911Z,10.33
2018-09-11T08:05:21.781Z,4.60
2018-09-11T08:07:49.592Z,9.43
2018-09-11T08:10:17.539Z,7.27
2018-09-11T08:12:45.364Z,6.97
2018-09-11T08:15:13.172Z,5.37
2018-09-11T08:17:40.995Z,11.87
2018-09-11T08:20:08.874Z,6.17
2018-09-11T08:22:36.707Z,5.37
2018-09-11T08:25:04.595Z,8.80
2018-09-11T08:27:32.455Z,4.97
2018-09-11T08:30:00.280Z,5.70
2018-09-11T08:32:28.129Z,3.60
2018-09-11T08:34:55.959Z,9.27
2018-09-11T08:37:23.789Z,4.73
2018-09-11T08:39:51.603Z,7.17
2018-09-11T08:42:19.489Z,6.53
2018-09-11T08:44:47.321Z,7.20
2018-09-11T08:47:15.268Z,7.90
2018-09-11T08:49:43.084Z,4.87
2018-09-11T08:52:11.014Z,5.73
2018-09-11T08:54:38.820Z,3.97
2018-09-11T08:57:06.654Z,8.83
2018-09-11T08:59:34.484Z,6.00
2018-09-11T09:02:02.312Z,11.60
2018-09-11T09:04:30.136Z,4.60
2018-09-11T09:06:57.952Z,6.97
2018-09-11T09:09:25.779Z,9.87
2018-09-11T09:11:53.623Z,6.07
2018-09-11T09:14:21.447Z,7.63
2018-09-11T09:16:49.275Z,4.57
2018-09-11T09:19:17.122Z,9.80
2018-09-11T09:21:44.949Z,4.77
2018-09-11T09:24:12.908Z,3.80
2018-09-11T09:26:40.745Z,6.00
2018-09-11T09:29:08.606Z,8.33
2018-09-11T09:31:36.462Z,4.27
2018-09-11T09:34:04.315Z,3.33
2018-09-11T09:36:32.283Z,7.97
2018-09-11T09:39:00.127Z,9.17
2018-09-11T09:41:27.956Z,9.20
2018-09-11T09:43:55.834Z,6.30
2018-09-11T09:46:23.679Z,8.20
2018-09-11T09:48:51.568Z,5.97
2018-09-11T09:51:19.386Z,8.10
2018-09-11T09:53:47.239Z,4.73
2018-09-11T09:56:15.130Z,6.83
2018-09-11T09:58:42.983Z,3.70
2018-09-11T10:01:15.909Z,6.10
2018-09-11T10:03:43.781Z,7.70
2018-09-11T10:06:11.623Z,3.40
2018-09-11T10:08:39.476Z,5.97
2018-09-11T10:11:07.305Z,7.03
2018-09-11T10:13:35.138Z,5.20
2018-09-11T10:16:03.099Z,4.80
2018-09-11T10:18:31.002Z,6.83
2018-09-11T10:20:58.870Z,3.97
2018-09-11T10:23:26.836Z,6.83
2018-09-11T10:25:54.663Z,6.47
2018-09-11T10:28:22.902Z,3.63
2018-09-11T10:30:50.748Z,5.07
2018-09-11T10:33:18.581Z,3.00
2018-09-11T10:35:46.425Z,5.47
2018-09-11T10:38:14.279Z,11.47
2018-09-11T10:40:42.124Z,2.60
2018-09-11T10:43:09.952Z,3.80
2018-09-11T10:45:37.810Z,11.90
2018-09-11T10:48:05.707Z,15.27
2018-09-11T10:50:33.583Z,5.53
2018-09-11T10:53:01.416Z,6.37
2018-09-11T10:55:29.294Z,7.00
2018-09-11T10:57:57.143Z,5.00
2018-09-11T11:00:25.349Z,3.47
2018-09-11T11:02:53.161Z,4.37
2018-09-11T11:05:21.006Z,4.10
2018-09-11T11:07:48.844Z,9.27
2018-09-11T11:10:16.679Z,13.03
2018-09-11T11:12:44.507Z,4.43
2018-09-11T11:15:12.322Z,5.33
2018-09-11T11:17:40.151Z,5.70
2018-09-11T11:20:07.993Z,6.53
2018-09-11T11:22:35.831Z,2.93
2018-09-11T11:25:03.702Z,6.63
2018-09-11T11:27:31.729Z,13.33
2018-09-11T11:29:59.575Z,3.53
2018-09-11T11:32:28.101Z,7.10
2018-09-11T11:34:56.066Z,7.73
2018-09-11T11:37:24.031Z,15.00
2018-09-11T11:39:51.812Z,4.07
2018-09-11T11:42:19.722Z,6.40
2018-09-11T11:44:47.527Z,6.13
2018-09-11T11:47:15.453Z,4.07
2018-09-11T11:49:43.444Z,4.07
2018-09-11T11:52:11.346Z,7.20
2018-09-11T11:54:39.189Z,9.57
2018-09-11T11:57:07.014Z,3.50
2018-09-11T11:59:34.847Z,4.33
2018-09-11T12:02:02.749Z,6.33
2018-09-11T12:04:30.731Z,4.17
2018-09-11T12:06:58.567Z,9.57
2018-09-11T12:09:26.392Z,3.33
2018-09-11T12:11:54.253Z,4.47
2018-09-11T12:14:22.101Z,4.37
2018-09-11T12:16:49.981Z,5.07
2018-09-11T12:19:17.811Z,2.93
2018-09-11T12:21:45.641Z,2.53
2018-09-11T12:24:13.479Z,3.37
2018-09-11T12:26:41.519Z,3.70
2018-09-11T12:29:09.349Z,4.07
2018-09-11T12:31:37.216Z,4.63
2018-09-11T12:34:05.038Z,3.30
2018-09-11T12:36:32.940Z,5.20
2018-09-11T12:39:01.061Z,4.03
2018-09-11T12:41:28.899Z,7.93
2018-09-11T12:43:56.729Z,3.63
2018-09-11T12:46:24.806Z,3.33
2018-09-11T12:48:52.602Z,3.43
2018-09-11T12:51:20.402Z,7.03
2018-09-11T12:53:48.234Z,4.63
2018-09-11T12:56:16.131Z,4.33
2018-09-11T12:58:43.976Z,4.60
2018-09-11T13:01:11.806Z,3.47
2018-09-11T13:03:39.863Z,6.63
2018-09-11T13:06:07.742Z,5.33
2018-09-11T13:08:35.639Z,5.23
2018-09-11T13:11:03.527Z,3.27
2018-09-11T13:13:31.370Z,5.20
2018-09-11T13:15:59.262Z,8.47
2018-09-11T13:18:27.099Z,10.57
2018-09-11T13:20:54.938Z,2.53
2018-09-11T13:23:22.899Z,6.50
2018-09-11T13:25:50.755Z,6.03
2018-09-11T13:28:18.591Z,2.93
2018-09-11T13:30:46.435Z,5.43
2018-09-11T13:33:14.364Z,5.83
2018-09-11T13:35:42.330Z,6.13
2018-09-11T13:38:10.190Z,2.80
2018-09-11T13:40:38.158Z,3.83
2018-09-11T13:43:06.092Z,6.00
2018-09-11T13:45:33.984Z,4.90
2018-09-11T13:48:01.924Z,4.27
2018-09-11T13:50:29.764Z,3.10
2018-09-11T13:52:57.647Z,2.83
2018-09-11T13:55:25.458Z,4.87
2018-09-11T13:57:53.905Z,3.23
2018-09-11T14:00:21.768Z,3.70
2018-09-11T14:02:49.603Z,5.67
2018-09-11T14:05:17.456Z,5.50
2018-09-11T14:07:45.283Z,3.00
2018-09-11T14:10:13.107Z,2.80
2018-09-11T14:12:41.116Z,11.07
2018-09-11T14:15:08.967Z,5.33
2018-09-11T14:17:36.831Z,3.53
2018-09-11T14:20:05.143Z,6.27
2018-09-11T14:22:32.971Z,4.57
2018-09-11T14:25:00.862Z,3.33
2018-09-11T14:27:28.684Z,3.37
2018-09-11T14:29:56.543Z,3.57
2018-09-11T14:32:24.379Z,10.40
2018-09-11T14:34:52.368Z,10.57
2018-09-11T14:37:20.222Z,6.40
2018-09-11T14:39:48.049Z,3.67
2018-09-11T14:42:15.879Z,6.60
2018-09-11T14:44:43.842Z,8.77
2018-09-11T14:47:11.667Z,6.37
2018-09-11T14:49:39.501Z,3.67
2018-09-11T14:52:07.348Z,3.10
2018-09-11T14:54:35.192Z,2.50
2018-09-11T14:57:03.067Z,5.37
2018-09-11T14:59:30.897Z,2.93
2018-09-11T15:01:58.731Z,3.10
2018-09-11T15:04:26.547Z,3.67
2018-09-11T15:06:54.390Z,2.93
2018-09-11T15:09:22.212Z,3.23
2018-09-11T15:11:50.061Z,12.53
2018-09-11T15:14:17.900Z,6.10
2018-09-11T15:16:45.878Z,3.17
2018-09-11T15:19:13.742Z,3.40
2018-09-11T15:21:41.566Z,5.70
2018-09-11T15:24:09.437Z,4.10
2018-09-11T15:26:37.273Z,4.47
2018-09-11T15:29:05.487Z,2.73
2018-09-11T15:31:33.319Z,5.83
2018-09-11T15:34:01.156Z,3.50
2018-09-11T15:36:29.153Z,5.73
2018-09-11T15:38:57.099Z,3.60
2018-09-11T15:41:24.940Z,3.87
2018-09-11T15:43:52.793Z,3.47
2018-09-11T15:46:20.657Z,4.57
2018-09-11T15:48:49.007Z,8.27
2018-09-11T15:51:16.925Z,4.77
2018-09-11T15:53:44.759Z,6.07
2018-09-11T15:56:12.651Z,5.57
2018-09-11T15:58:40.531Z,7.80
2018-09-11T16:01:08.368Z,6.93
2018-09-11T16:03:36.184Z,6.80
2018-09-11T16:06:04.027Z,3.03
2018-09-11T16:08:32.158Z,6.87
2018-09-11T16:11:00.001Z,3.07
2018-09-11T16:13:27.881Z,4.40
2018-09-11T16:15:55.771Z,4.63
2018-09-11T16:18:23.603Z,7.27
2018-09-11T16:20:51.485Z,8.33
2018-09-11T16:23:19.347Z,4.20
2018-09-11T16:25:47.180Z,3.80
2018-09-11T16:28:15.018Z,3.63
2018-09-11T16:30:42.845Z,6.67
2018-09-11T16:33:10.702Z,4.20
2018-09-11T16:35:38.523Z,3.63
2018-09-11T16:38:06.395Z,4.80
2018-09-11T16:40:34.252Z,4.37
2018-09-11T16:43:02.117Z,3.20
2018-09-11T16:45:30.100Z,3.43
2018-09-11T16:47:57.927Z,4.27
2018-09-11T16:50:25.795Z,6.93
2018-09-11T16:52:54.292Z,6.67
2018-09-11T16:55:22.151Z,5.80
2018-09-11T16:57:50.008Z,4.50
2018-09-11T17:00:17.830Z,5.53
2018-09-11T17:02:45.673Z,4.63
2018-09-11T17:05:13.694Z,8.83
2018-09-11T17:07:41.595Z,4.13
2018-09-11T17:10:09.459Z,4.50
2018-09-11T17:12:37.323Z,4.33
2018-09-11T17:15:05.215Z,7.57
2018-09-11T17:17:33.142Z,11.23
2018-09-11T17:20:01.001Z,7.77
2018-09-11T17:22:28.858Z,4.47
2018-09-11T17:24:56.738Z,4.90
2018-09-11T17:27:24.568Z,3.60
2018-09-11T17:29:52.489Z,4.53
2018-09-11T17:32:20.353Z,3.73
2018-09-11T17:34:48.164Z,4.50
2018-09-11T17:37:16.096Z,3.67
2018-09-11T17:39:43.954Z,6.80
2018-09-11T17:42:11.902Z,3.93
2018-09-11T17:44:39.722Z,4.47
2018-09-11T17:47:07.568Z,4.33
2018-09-11T17:49:35.371Z,8.57
2018-09-11T17:52:03.235Z,4.67
2018-09-11T17:54:31.083Z,7.77
2018-09-11T17:56:58.966Z,6.37
2018-09-11T17:59:26.780Z,5.90
2018-09-11T18:01:54.614Z,7.17
2018-09-11T18:04:22.435Z,4.93
2018-09-11T18:06:50.288Z,8.20
2018-09-11T18:09:18.434Z,5.37
2018-09-11T18:11:46.268Z,7.27
2018-09-11T18:14:14.127Z,4.53
2018-09-11T18:16:41.962Z,9.77
2018-09-11T18:19:09.838Z,8.50
2018-09-11T18:21:37.670Z,8.77
2018-09-11T18:24:05.504Z,6.50
2018-09-11T18:26:33.338Z,8.90
2018-09-11T18:29:01.535Z,6.90
2018-09-11T18:31:29.386Z,8.40
2018-09-11T18:33:57.272Z,7.83
2018-09-11T18:36:25.225Z,23.80
2018-09-11T18:38:53.103Z,28.07
2018-09-11T18:41:20.993Z,30.70
2018-09-11T18:43:49.137Z,20.33
2018-09-11T18:46:16.989Z,17.47
2018-09-11T18:48:44.830Z,14.90
2018-09-11T18:51:12.700Z,10.97
2018-09-11T18:53:40.546Z,11.67
2018-09-11T18:56:08.376Z,10.37
2018-09-11T18:58:36.263Z,19.57
2018-09-11T19:01:04.159Z,13.83
2018-09-11T19:03:32.050Z,10.27
2018-09-11T19:05:59.881Z,8.90
2018-09-11T19:08:27.744Z,10.57
2018-09-11T19:10:55.724Z,11.23
2018-09-11T19:13:23.693Z,11.57
2018-09-11T19:15:51.647Z,7.50
2018-09-11T19:18:19.504Z,11.77
2018-09-11T19:20:47.359Z,9.00
2018-09-11T19:23:15.216Z,7.30
2018-09-11T19:25:43.075Z,6.83
2018-09-11T19:28:10.907Z,6.07
2018-09-11T19:30:38.755Z,9.67
2018-09-11T19:33:07.182Z,9.00
2018-09-11T19:35:35.059Z,12.70
2018-09-11T19:38:02.928Z,10.00
2018-09-11T19:40:30.780Z,9.67
2018-09-11T19:42:58.707Z,10.57
2018-09-11T19:45:26.547Z,7.33
2018-09-11T19:47:54.375Z,11.37
2018-09-11T19:50:22.266Z,7.50
2018-09-11T19:52:50.117Z,16.27
2018-09-11T19:55:17.960Z,10.70
2018-09-11T19:57:45.921Z,12.60
2018-09-11T20:00:13.798Z,15.07
2018-09-11T20:02:41.643Z,12.60
2018-09-11T20:05:09.538Z,17.47
2018-09-11T20:07:37.400Z,14.87
2018-09-11T20:10:05.286Z,15.30
2018-09-11T20:12:33.147Z,17.20
2018-09-11T20:15:01.090Z,18.93
2018-09-11T20:17:28.941Z,14.27
2018-09-11T20:19:56.791Z,13.93
2018-09-11T20:22:24.648Z,17.87
2018-09-11T20:24:52.485Z,14.40
2018-09-11T20:27:20.319Z,16.83
2018-09-11T20:29:48.175Z,20.20
2018-09-11T20:32:16.014Z,21.47
2018-09-11T20:34:43.990Z,20.53
2018-09-11T20:37:12.262Z,19.37
2018-09-11T20:39:40.111Z,17.33
2018-09-11T20:42:08.122Z,13.63
2018-09-11T20:44:36.059Z,16.43
2018-09-11T20:47:04.007Z,15.60
2018-09-11T20:49:32.248Z,13.80
2018-09-11T20:52:00.079Z,14.57
2018-09-11T20:54:27.928Z,20.80
2018-09-11T20:56:55.779Z,22.03
2018-09-11T20:59:23.633Z,20.70
2018-09-11T21:01:51.475Z,19.97
2018-09-11T21:04:19.295Z,12.77
2018-09-11T21:06:47.135Z,11.20
2018-09-11T21:09:15.035Z,10.63
2018-09-11T21:11:42.876Z,13.60
2018-09-11T21:14:10.702Z,18.07
2018-09-11T21:16:38.557Z,9.43
2018-09-11T21:19:06.405Z,10.67
2018-09-11T21:21:34.267Z,9.90
2018-09-11T21:24:02.169Z,10.53
2018-09-11T21:26:30.038Z,8.07
2018-09-11T21:28:57.893Z,10.83
2018-09-11T21:31:25.903Z,11.23
2018-09-11T21:33:53.726Z,9.63
2018-09-11T21:36:21.657Z,7.43
2018-09-11T21:38:49.595Z,7.30
2018-09-11T21:41:17.589Z,13.10
2018-09-11T21:43:45.471Z,8.80
2018-09-11T21:46:13.358Z,9.47
2018-09-11T21:48:41.221Z,10.10
2018-09-11T21:51:09.093Z,12.30
2018-09-11T21:53:36.931Z,7.50
2018-09-11T21:56:04.777Z,9.20
2018-09-11T21:58:32.623Z,7.23
2018-09-11T22:01:06.659Z,9.93
2018-09-11T22:03:34.490Z,10.73
2018-09-11T22:06:02.444Z,8.97
2018-09-11T22:08:30.394Z,14.07
2018-09-11T22:10:58.335Z,13.43
2018-09-11T22:13:26.336Z,8.07
2018-09-11T22:15:54.185Z,9.77
2018-09-11T22:18:22.035Z,7.40
2018-09-11T22:20:50.025Z,10.33
2018-09-11T22:23:17.971Z,10.53
2018-09-11T22:25:45.797Z,9.77
2018-09-11T22:28:13.660Z,13.60
2018-09-11T22:30:41.511Z,8.57
2018-09-11T22:33:09.508Z,8.27
2018-09-11T22:35:37.334Z,5.80
2018-09-11T22:38:05.255Z,8.80
2018-09-11T22:40:33.315Z,11.07
2018-09-11T22:43:01.217Z,12.17
2018-09-11T22:45:30.394Z,10.57
2018-09-11T22:47:58.238Z,9.93
2018-09-11T22:50:26.183Z,9.83
2018-09-11T22:52:54.028Z,8.17
2018-09-11T22:55:22.015Z,10.60
2018-09-11T22:57:49.832Z,13.50
2018-09-11T23:00:17.695Z,10.77
2018-09-11T23:02:45.735Z,11.70
2018-09-11T23:05:13.600Z,10.97
2018-09-11T23:07:41.667Z,11.97
2018-09-11T23:10:09.607Z,8.87
2018-09-11T23:12:37.438Z,11.60
2018-09-11T23:15:05.319Z,12.60
2018-09-11T23:17:33.715Z,12.53
2018-09-11T23:20:01.555Z,12.47
2018-09-11T23:22:29.402Z,7.87
2018-09-11T23:24:57.248Z,10.27
2018-09-11T23:27:25.076Z,10.07
2018-09-11T23:29:52.934Z,6.83
2018-09-11T23:32:20.777Z,8.63
2018-09-11T23:34:48.594Z,13.10
2018-09-11T23:37:16.489Z,8.80
2018-09-11T23:39:44.427Z,8.70
2018-09-11T23:42:12.255Z,7.67
2018-09-11T23:44:40.109Z,6.73
2018-09-11T23:47:07.971Z,6.60
2018-09-11T23:49:36.348Z,8.07
2018-09-11T23:52:04.193Z,4.67
2018-09-11T23:54:32.020Z,7.83
2018-09-11T23:56:59.860Z,10.17
2018-09-11T23:59:27.689Z,11.97
